sensor_id;sensor_type;location;lat;lon;timestamp;P1;durP1;ratioP1;P2;durP2;ratioP2
64887;SDS011;51386;53.082;8.816;2023-02-15T00:01:43;20.47;;;17.20;;
64887;SDS011;51386;53.082;8.816;2023-02-15T00:04:12;22.13;;;17.53;;
64887;SDS011;51386;53.082;8.816;2023-02-15T00:06:41;21.07;;;16.93;;
64887;SDS011;51386;53.082;8.816;2023-02-15T00:09:08;23.07;;;17.47;;
64887;SDS011;51386;53.082;8.816;2023-02-15T00:11:37;21.80;;;16.70;;
64887;SDS011;51386;53.082;8.816;2023-02-15T00:14:09;22.50;;;17.60;;
64887;SDS011;51386;53.082;8.816;2023-02-15T00:16:39;23.13;;;17.50;;
64887;SDS011;51386;53.082;8.816;2023-02-15T00:19:10;22.90;;;17.30;;
64887;SDS011;51386;53.082;8.816;2023-02-15T00:21:39;22.40;;;17.33;;
64887;SDS011;51386;53.082;8.816;2023-02-15T00:24:07;22.33;;;17.20;;
64887;SDS011;51386;53.082;8.816;2023-02-15T00:26:37;21.60;;;17.10;;
64887;SDS011;51386;53.082;8.816;2023-02-15T00:29:05;22.97;;;18.23;;
64887;SDS011;51386;53.082;8.816;2023-02-15T00:31:33;22.83;;;16.57;;
64887;SDS011;51386;53.082;8.816;2023-02-15T00:34:02;21.17;;;17.13;;
64887;SDS011;51386;53.082;8.816;2023-02-15T00:36:31;25.33;;;18.70;;
64887;SDS011;51386;53.082;8.816;2023-02-15T00:38:59;21.93;;;18.03;;
64887;SDS011;51386;53.082;8.816;2023-02-15T00:41:26;23.53;;;18.53;;
64887;SDS011;51386;53.082;8.816;2023-02-15T00:43:52;21.60;;;17.97;;
64887;SDS011;51386;53.082;8.816;2023-02-15T00:46:19;22.63;;;17.80;;
64887;SDS011;51386;53.082;8.816;2023-02-15T00:48:46;22.83;;;17.90;;
64887;SDS011;51386;53.082;8.816;2023-02-15T00:51:14;22.63;;;17.93;;
64887;SDS011;51386;53.082;8.816;2023-02-15T00:53:42;21.23;;;17.70;;
64887;SDS011;51386;53.082;8.816;2023-02-15T00:56:10;24.73;;;19.27;;
64887;SDS011;51386;53.082;8.816;2023-02-15T00:58:37;24.23;;;19.07;;
64887;SDS011;51386;53.082;8.816;2023-02-15T01:01:05;25.13;;;18.47;;
64887;SDS011;51386;53.082;8.816;2023-02-15T01:03:35;25.60;;;19.37;;
64887;SDS011;51386;53.082;8.816;2023-02-15T01:06:03;26.03;;;19.03;;
64887;SDS011;51386;53.082;8.816;2023-02-15T01:08:30;27.10;;;18.63;;
64887;SDS011;51386;53.082;8.816;2023-02-15T01:11:03;36.97;;;19.10;;
64887;SDS011;51386;53.082;8.816;2023-02-15T01:13:31;23.50;;;15.87;;
64887;SDS011;51386;53.082;8.816;2023-02-15T01:15:59;28.77;;;18.97;;
64887;SDS011;51386;53.082;8.816;2023-02-15T01:18:26;30.77;;;17.93;;
64887;SDS011;51386;53.082;8.816;2023-02-15T01:20:55;55.30;;;18.77;;
64887;SDS011;51386;53.082;8.816;2023-02-15T01:23:23;21.13;;;14.30;;
64887;SDS011;51386;53.082;8.816;2023-02-15T01:25:50;41.00;;;16.80;;
64887;SDS011;51386;53.082;8.816;2023-02-15T01:28:18;28.47;;;15.23;;
64887;SDS011;51386;53.082;8.816;2023-02-15T01:30:45;40.43;;;15.83;;
64887;SDS011;51386;53.082;8.816;2023-02-15T01:33:12;21.03;;;15.63;;
64887;SDS011;51386;53.082;8.816;2023-02-15T01:35:44;24.40;;;15.50;;
64887;SDS011;51386;53.082;8.816;2023-02-15T01:38:12;23.13;;;17.30;;
64887;SDS011;51386;53.082;8.816;2023-02-15T01:40:41;27.30;;;14.97;;
64887;SDS011;51386;53.082;8.816;2023-02-15T01:43:09;22.13;;;16.87;;
64887;SDS011;51386;53.082;8.816;2023-02-15T01:45:39;19.57;;;14.23;;
64887;SDS011;51386;53.082;8.816;2023-02-15T01:48:19;20.93;;;14.20;;
64887;SDS011;51386;53.082;8.816;2023-02-15T01:50:52;23.37;;;12.87;;
64887;SDS011;51386;53.082;8.816;2023-02-15T01:53:24;20.03;;;13.37;;
64887;SDS011;51386;53.082;8.816;2023-02-15T01:55:57;28.97;;;15.33;;
64887;SDS011;51386;53.082;8.816;2023-02-15T01:58:32;15.00;;;12.50;;
64887;SDS011;51386;53.082;8.816;2023-02-15T02:01:03;18.60;;;13.87;;
64887;SDS011;51386;53.082;8.816;2023-02-15T02:03:36;15.00;;;11.90;;
64887;SDS011;51386;53.082;8.816;2023-02-15T02:06:13;18.10;;;12.73;;
64887;SDS011;51386;53.082;8.816;2023-02-15T02:08:41;16.27;;;13.40;;
64887;SDS011;51386;53.082;8.816;2023-02-15T02:11:09;16.03;;;12.77;;
64887;SDS011;51386;53.082;8.816;2023-02-15T02:13:37;15.17;;;12.53;;
64887;SDS011;51386;53.082;8.816;2023-02-15T02:16:08;16.77;;;12.63;;
64887;SDS011;51386;53.082;8.816;2023-02-15T02:18:45;16.67;;;12.07;;
64887;SDS011;51386;53.082;8.816;2023-02-15T02:21:44;19.40;;;11.93;;
64887;SDS011;51386;53.082;8.816;2023-02-15T02:25:12;12.73;;;11.20;;
64887;SDS011;51386;53.082;8.816;2023-02-15T02:28:03;21.13;;;13.83;;
64887;SDS011;51386;53.082;8.816;2023-02-15T02:31:13;15.20;;;11.77;;
64887;SDS011;51386;53.082;8.816;2023-02-15T02:34:11;14.90;;;12.00;;
64887;SDS011;51386;53.082;8.816;2023-02-15T02:36:49;14.10;;;11.20;;
64887;SDS011;51386;53.082;8.816;2023-02-15T02:39:25;14.87;;;12.80;;
64887;SDS011;51386;53.082;8.816;2023-02-15T02:42:05;14.33;;;11.90;;
64887;SDS011;51386;53.082;8.816;2023-02-15T02:44:41;14.60;;;12.07;;
64887;SDS011;51386;53.082;8.816;2023-02-15T02:47:11;20.30;;;12.90;;
64887;SDS011;51386;53.082;8.816;2023-02-15T02:49:47;21.73;;;12.90;;
64887;SDS011;51386;53.082;8.816;2023-02-15T02:52:37;13.17;;;10.80;;
64887;SDS011;51386;53.082;8.816;2023-02-15T02:55:10;11.93;;;10.60;;
64887;SDS011;51386;53.082;8.816;2023-02-15T02:57:48;11.63;;;10.13;;
64887;SDS011;51386;53.082;8.816;2023-02-15T03:00:21;13.90;;;11.23;;
64887;SDS011;51386;53.082;8.816;2023-02-15T03:02:53;13.47;;;11.63;;
64887;SDS011;51386;53.082;8.816;2023-02-15T03:05:32;14.33;;;11.20;;
64887;SDS011;51386;53.082;8.816;2023-02-15T03:08:15;17.77;;;14.10;;
64887;SDS011;51386;53.082;8.816;2023-02-15T03:10:48;12.93;;;11.17;;
64887;SDS011;51386;53.082;8.816;2023-02-15T03:13:19;14.67;;;12.67;;
64887;SDS011;51386;53.082;8.816;2023-02-15T03:15:47;12.67;;;10.97;;
64887;SDS011;51386;53.082;8.816;2023-02-15T03:18:38;13.67;;;11.93;;
64887;SDS011;51386;53.082;8.816;2023-02-15T03:21:12;13.77;;;11.83;;
64887;SDS011;51386;53.082;8.816;2023-02-15T03:23:49;14.77;;;12.07;;
64887;SDS011;51386;53.082;8.816;2023-02-15T03:26:24;13.20;;;11.80;;
64887;SDS011;51386;53.082;8.816;2023-02-15T03:28:55;12.50;;;10.37;;
64887;SDS011;51386;53.082;8.816;2023-02-15T03:31:25;13.37;;;11.90;;
64887;SDS011;51386;53.082;8.816;2023-02-15T03:33:58;12.63;;;11.33;;
64887;SDS011;51386;53.082;8.816;2023-02-15T03:36:32;13.20;;;10.90;;
64887;SDS011;51386;53.082;8.816;2023-02-15T03:39:12;10.77;;;9.67;;
64887;SDS011;51386;53.082;8.816;2023-02-15T03:41:48;11.87;;;10.17;;
64887;SDS011;51386;53.082;8.816;2023-02-15T03:44:26;21.57;;;10.87;;
64887;SDS011;51386;53.082;8.816;2023-02-15T03:46:59;11.13;;;9.80;;
64887;SDS011;51386;53.082;8.816;2023-02-15T03:49:36;15.37;;;9.30;;
64887;SDS011;51386;53.082;8.816;2023-02-15T03:52:12;18.10;;;11.23;;
64887;SDS011;51386;53.082;8.816;2023-02-15T03:54:43;12.67;;;10.53;;
64887;SDS011;51386;53.082;8.816;2023-02-15T03:57:15;14.67;;;10.77;;
64887;SDS011;51386;53.082;8.816;2023-02-15T04:00:08;11.53;;;10.30;;
64887;SDS011;51386;53.082;8.816;2023-02-15T04:03:03;12.83;;;9.70;;
64887;SDS011;51386;53.082;8.816;2023-02-15T04:05:49;14.03;;;9.40;;
64887;SDS011;51386;53.082;8.816;2023-02-15T04:08:18;10.57;;;9.47;;
64887;SDS011;51386;53.082;8.816;2023-02-15T04:10:45;10.60;;;9.50;;
64887;SDS011;51386;53.082;8.816;2023-02-15T04:13:29;11.10;;;9.90;;
64887;SDS011;51386;53.082;8.816;2023-02-15T04:15:57;12.77;;;11.40;;
64887;SDS011;51386;53.082;8.816;2023-02-15T04:18:32;12.70;;;8.73;;
64887;SDS011;51386;53.082;8.816;2023-02-15T04:21:20;12.63;;;10.60;;
64887;SDS011;51386;53.082;8.816;2023-02-15T04:24:10;12.97;;;10.00;;
64887;SDS011;51386;53.082;8.816;2023-02-15T04:26:57;12.37;;;9.60;;
64887;SDS011;51386;53.082;8.816;2023-02-15T04:29:26;11.57;;;10.23;;
64887;SDS011;51386;53.082;8.816;2023-02-15T04:31:56;12.27;;;9.57;;
64887;SDS011;51386;53.082;8.816;2023-02-15T04:34:25;11.60;;;9.67;;
64887;SDS011;51386;53.082;8.816;2023-02-15T04:36:52;10.43;;;9.33;;
64887;SDS011;51386;53.082;8.816;2023-02-15T04:39:20;11.67;;;9.87;;
64887;SDS011;51386;53.082;8.816;2023-02-15T04:41:47;14.07;;;9.67;;
64887;SDS011;51386;53.082;8.816;2023-02-15T04:44:14;11.10;;;9.07;;
64887;SDS011;51386;53.082;8.816;2023-02-15T04:46:42;13.90;;;9.40;;
64887;SDS011;51386;53.082;8.816;2023-02-15T04:49:09;10.33;;;8.57;;
64887;SDS011;51386;53.082;8.816;2023-02-15T04:51:36;13.20;;;11.07;;
64887;SDS011;51386;53.082;8.816;2023-02-15T04:54:03;11.60;;;9.57;;
64887;SDS011;51386;53.082;8.816;2023-02-15T04:56:31;12.57;;;10.47;;
64887;SDS011;51386;53.082;8.816;2023-02-15T04:59:00;12.97;;;10.30;;
64887;SDS011;51386;53.082;8.816;2023-02-15T05:01:27;12.53;;;10.00;;
64887;SDS011;51386;53.082;8.816;2023-02-15T05:03:54;12.50;;;10.07;;
64887;SDS011;51386;53.082;8.816;2023-02-15T05:06:21;11.37;;;9.67;;
64887;SDS011;51386;53.082;8.816;2023-02-15T05:08:49;12.90;;;10.03;;
64887;SDS011;51386;53.082;8.816;2023-02-15T05:11:16;23.37;;;10.73;;
64887;SDS011;51386;53.082;8.816;2023-02-15T05:13:44;18.57;;;10.37;;
64887;SDS011;51386;53.082;8.816;2023-02-15T05:16:11;11.47;;;9.60;;
64887;SDS011;51386;53.082;8.816;2023-02-15T05:18:40;14.37;;;10.40;;
64887;SDS011;51386;53.082;8.816;2023-02-15T05:21:07;14.23;;;11.03;;
64887;SDS011;51386;53.082;8.816;2023-02-15T05:23:34;13.27;;;10.17;;
64887;SDS011;51386;53.082;8.816;2023-02-15T05:26:01;12.30;;;9.57;;
64887;SDS011;51386;53.082;8.816;2023-02-15T05:28:48;12.50;;;10.33;;
64887;SDS011;51386;53.082;8.816;2023-02-15T05:31:16;12.50;;;10.00;;
64887;SDS011;51386;53.082;8.816;2023-02-15T05:33:45;11.83;;;9.93;;
64887;SDS011;51386;53.082;8.816;2023-02-15T05:36:12;12.47;;;9.83;;
64887;SDS011;51386;53.082;8.816;2023-02-15T05:38:40;13.33;;;10.67;;
64887;SDS011;51386;53.082;8.816;2023-02-15T05:41:08;12.27;;;10.00;;
64887;SDS011;51386;53.082;8.816;2023-02-15T05:43:37;12.90;;;10.93;;
64887;SDS011;51386;53.082;8.816;2023-02-15T05:46:06;12.77;;;10.03;;
64887;SDS011;51386;53.082;8.816;2023-02-15T05:48:34;18.63;;;10.10;;
64887;SDS011;51386;53.082;8.816;2023-02-15T05:51:03;11.43;;;9.17;;
64887;SDS011;51386;53.082;8.816;2023-02-15T05:53:33;12.17;;;9.70;;
64887;SDS011;51386;53.082;8.816;2023-02-15T05:56:03;10.33;;;9.03;;
64887;SDS011;51386;53.082;8.816;2023-02-15T05:58:32;10.00;;;8.93;;
64887;SDS011;51386;53.082;8.816;2023-02-15T06:01:08;10.30;;;8.50;;
64887;SDS011;51386;53.082;8.816;2023-02-15T06:03:36;11.50;;;9.00;;
64887;SDS011;51386;53.082;8.816;2023-02-15T06:06:03;11.13;;;9.30;;
64887;SDS011;51386;53.082;8.816;2023-02-15T06:08:31;10.60;;;8.70;;
64887;SDS011;51386;53.082;8.816;2023-02-15T06:10:59;11.20;;;9.10;;
64887;SDS011;51386;53.082;8.816;2023-02-15T06:13:26;9.77;;;8.40;;
64887;SDS011;51386;53.082;8.816;2023-02-15T06:15:53;10.47;;;8.50;;
64887;SDS011;51386;53.082;8.816;2023-02-15T06:18:22;9.80;;;8.83;;
64887;SDS011;51386;53.082;8.816;2023-02-15T06:20:49;10.10;;;8.63;;
64887;SDS011;51386;53.082;8.816;2023-02-15T06:23:16;8.83;;;7.93;;
64887;SDS011;51386;53.082;8.816;2023-02-15T06:25:44;10.53;;;9.13;;
64887;SDS011;51386;53.082;8.816;2023-02-15T06:28:12;11.30;;;9.90;;
64887;SDS011;51386;53.082;8.816;2023-02-15T06:30:39;11.20;;;9.73;;
64887;SDS011;51386;53.082;8.816;2023-02-15T06:33:06;10.23;;;8.80;;
64887;SDS011;51386;53.082;8.816;2023-02-15T06:35:35;12.10;;;8.80;;
64887;SDS011;51386;53.082;8.816;2023-02-15T06:38:02;10.23;;;9.13;;
64887;SDS011;51386;53.082;8.816;2023-02-15T06:40:29;9.63;;;8.50;;
64887;SDS011;51386;53.082;8.816;2023-02-15T06:42:56;10.23;;;8.43;;
64887;SDS011;51386;53.082;8.816;2023-02-15T06:45:23;10.23;;;8.90;;
64887;SDS011;51386;53.082;8.816;2023-02-15T06:47:50;9.43;;;8.07;;
64887;SDS011;51386;53.082;8.816;2023-02-15T06:50:17;9.47;;;7.93;;
64887;SDS011;51386;53.082;8.816;2023-02-15T06:52:46;11.33;;;9.10;;
64887;SDS011;51386;53.082;8.816;2023-02-15T06:55:13;8.70;;;7.80;;
64887;SDS011;51386;53.082;8.816;2023-02-15T06:57:40;9.20;;;8.20;;
64887;SDS011;51386;53.082;8.816;2023-02-15T07:00:07;9.17;;;8.20;;
64887;SDS011;51386;53.082;8.816;2023-02-15T07:02:35;11.90;;;8.73;;
64887;SDS011;51386;53.082;8.816;2023-02-15T07:05:02;10.07;;;8.30;;
64887;SDS011;51386;53.082;8.816;2023-02-15T07:07:31;10.73;;;9.63;;
64887;SDS011;51386;53.082;8.816;2023-02-15T07:09:59;10.00;;;8.93;;
64887;SDS011;51386;53.082;8.816;2023-02-15T07:12:26;10.27;;;8.80;;
64887;SDS011;51386;53.082;8.816;2023-02-15T07:15:09;11.47;;;9.27;;
64887;SDS011;51386;53.082;8.816;2023-02-15T07:17:39;11.40;;;8.17;;
64887;SDS011;51386;53.082;8.816;2023-02-15T07:20:07;13.70;;;9.73;;
64887;SDS011;51386;53.082;8.816;2023-02-15T07:22:37;9.93;;;8.93;;
64887;SDS011;51386;53.082;8.816;2023-02-15T07:25:06;9.77;;;8.77;;
64887;SDS011;51386;53.082;8.816;2023-02-15T07:27:36;9.30;;;8.37;;
64887;SDS011;51386;53.082;8.816;2023-02-15T07:30:05;9.83;;;8.53;;
64887;SDS011;51386;53.082;8.816;2023-02-15T07:32:35;12.13;;;10.77;;
64887;SDS011;51386;53.082;8.816;2023-02-15T07:35:03;10.87;;;9.77;;
64887;SDS011;51386;53.082;8.816;2023-02-15T07:37:30;8.67;;;7.83;;
64887;SDS011;51386;53.082;8.816;2023-02-15T07:39:57;10.87;;;9.70;;
64887;SDS011;51386;53.082;8.816;2023-02-15T07:42:25;9.93;;;8.93;;
64887;SDS011;51386;53.082;8.816;2023-02-15T07:44:52;10.23;;;9.23;;
64887;SDS011;51386;53.082;8.816;2023-02-15T07:47:19;13.47;;;10.23;;
64887;SDS011;51386;53.082;8.816;2023-02-15T07:49:46;9.50;;;8.50;;
64887;SDS011;51386;53.082;8.816;2023-02-15T07:52:16;9.87;;;8.83;;
64887;SDS011;51386;53.082;8.816;2023-02-15T07:54:43;9.87;;;8.87;;
64887;SDS011;51386;53.082;8.816;2023-02-15T07:57:10;16.50;;;11.63;;
64887;SDS011;51386;53.082;8.816;2023-02-15T07:59:38;13.10;;;10.50;;
64887;SDS011;51386;53.082;8.816;2023-02-15T08:02:05;14.87;;;11.03;;
64887;SDS011;51386;53.082;8.816;2023-02-15T08:04:36;11.40;;;10.27;;
64887;SDS011;51386;53.082;8.816;2023-02-15T08:07:03;15.30;;;12.23;;
64887;SDS011;51386;53.082;8.816;2023-02-15T08:09:30;10.27;;;9.27;;
64887;SDS011;51386;53.082;8.816;2023-02-15T08:11:57;9.23;;;8.33;;
64887;SDS011;51386;53.082;8.816;2023-02-15T08:14:24;9.03;;;7.47;;
64887;SDS011;51386;53.082;8.816;2023-02-15T08:16:55;9.60;;;8.43;;
64887;SDS011;51386;53.082;8.816;2023-02-15T08:19:29;11.67;;;8.90;;
64887;SDS011;51386;53.082;8.816;2023-02-15T08:21:58;9.83;;;8.13;;
64887;SDS011;51386;53.082;8.816;2023-02-15T08:24:28;10.57;;;9.57;;
64887;SDS011;51386;53.082;8.816;2023-02-15T08:26:57;10.83;;;8.97;;
64887;SDS011;51386;53.082;8.816;2023-02-15T08:29:26;12.57;;;8.60;;
64887;SDS011;51386;53.082;8.816;2023-02-15T08:31:57;10.30;;;9.27;;
64887;SDS011;51386;53.082;8.816;2023-02-15T08:34:29;10.47;;;8.37;;
64887;SDS011;51386;53.082;8.816;2023-02-15T08:36:58;9.87;;;8.83;;
64887;SDS011;51386;53.082;8.816;2023-02-15T08:39:25;12.07;;;9.47;;
64887;SDS011;51386;53.082;8.816;2023-02-15T08:41:52;13.43;;;11.57;;
64887;SDS011;51386;53.082;8.816;2023-02-15T08:44:19;18.27;;;15.30;;
64887;SDS011;51386;53.082;8.816;2023-02-15T08:46:48;18.93;;;15.63;;
64887;SDS011;51386;53.082;8.816;2023-02-15T08:49:18;15.33;;;13.07;;
64887;SDS011;51386;53.082;8.816;2023-02-15T08:51:47;14.43;;;12.70;;
64887;SDS011;51386;53.082;8.816;2023-02-15T08:54:16;11.73;;;10.53;;
64887;SDS011;51386;53.082;8.816;2023-02-15T08:56:45;12.13;;;10.83;;
64887;SDS011;51386;53.082;8.816;2023-02-15T08:59:14;11.33;;;10.17;;
64887;SDS011;51386;53.082;8.816;2023-02-15T09:01:44;17.43;;;14.93;;
64887;SDS011;51386;53.082;8.816;2023-02-15T09:04:12;14.80;;;12.37;;
64887;SDS011;51386;53.082;8.816;2023-02-15T09:06:43;10.97;;;9.87;;
64887;SDS011;51386;53.082;8.816;2023-02-15T09:09:14;10.83;;;9.83;;
64887;SDS011;51386;53.082;8.816;2023-02-15T09:11:42;11.37;;;10.17;;
64887;SDS011;51386;53.082;8.816;2023-02-15T09:14:16;10.10;;;9.10;;
64887;SDS011;51386;53.082;8.816;2023-02-15T09:16:46;14.97;;;11.07;;
64887;SDS011;51386;53.082;8.816;2023-02-15T09:19:16;10.23;;;9.17;;
64887;SDS011;51386;53.082;8.816;2023-02-15T09:21:46;11.67;;;10.57;;
64887;SDS011;51386;53.082;8.816;2023-02-15T09:24:14;12.97;;;11.67;;
64887;SDS011;51386;53.082;8.816;2023-02-15T09:26:48;12.23;;;11.13;;
64887;SDS011;51386;53.082;8.816;2023-02-15T09:29:21;13.63;;;12.23;;
64887;SDS011;51386;53.082;8.816;2023-02-15T09:32:04;14.20;;;11.57;;
64887;SDS011;51386;53.082;8.816;2023-02-15T09:34:34;14.80;;;13.33;;
64887;SDS011;51386;53.082;8.816;2023-02-15T09:37:04;27.60;;;18.30;;
64887;SDS011;51386;53.082;8.816;2023-02-15T09:39:32;23.53;;;21.03;;
64887;SDS011;51386;53.082;8.816;2023-02-15T09:45:16;13.03;;;11.73;;
64887;SDS011;51386;53.082;8.816;2023-02-15T09:48:04;12.77;;;11.57;;
64887;SDS011;51386;53.082;8.816;2023-02-15T09:51:23;12.23;;;11.03;;
64887;SDS011;51386;53.082;8.816;2023-02-15T09:54:28;13.07;;;11.63;;
64887;SDS011;51386;53.082;8.816;2023-02-15T09:57:15;14.23;;;11.83;;
64887;SDS011;51386;53.082;8.816;2023-02-15T09:59:57;16.83;;;15.03;;
64887;SDS011;51386;53.082;8.816;2023-02-15T10:02:38;13.57;;;12.27;;
64887;SDS011;51386;53.082;8.816;2023-02-15T10:05:28;14.33;;;12.93;;
64887;SDS011;51386;53.082;8.816;2023-02-15T10:11:40;13.47;;;12.27;;
64887;SDS011;51386;53.082;8.816;2023-02-15T10:14:33;12.93;;;11.63;;
64887;SDS011;51386;53.082;8.816;2023-02-15T10:17:35;13.07;;;11.77;;
64887;SDS011;51386;53.082;8.816;2023-02-15T10:20:31;14.13;;;12.83;;
64887;SDS011;51386;53.082;8.816;2023-02-15T10:23:13;17.07;;;15.27;;
64887;SDS011;51386;53.082;8.816;2023-02-15T10:26:01;15.50;;;14.00;;
64887;SDS011;51386;53.082;8.816;2023-02-15T10:28:43;16.30;;;14.63;;
64887;SDS011;51386;53.082;8.816;2023-02-15T10:31:19;17.63;;;15.83;;
64887;SDS011;51386;53.082;8.816;2023-02-15T10:33:55;19.10;;;17.20;;
64887;SDS011;51386;53.082;8.816;2023-02-15T10:36:48;15.97;;;14.47;;
64887;SDS011;51386;53.082;8.816;2023-02-15T10:39:42;15.00;;;13.40;;
64887;SDS011;51386;53.082;8.816;2023-02-15T10:42:27;19.57;;;17.47;;
64887;SDS011;51386;53.082;8.816;2023-02-15T10:45:10;17.77;;;16.03;;
64887;SDS011;51386;53.082;8.816;2023-02-15T10:47:53;16.47;;;14.77;;
64887;SDS011;51386;53.082;8.816;2023-02-15T10:50:47;16.97;;;15.17;;
64887;SDS011;51386;53.082;8.816;2023-02-15T10:53:24;17.33;;;15.50;;
64887;SDS011;51386;53.082;8.816;2023-02-15T10:56:12;16.93;;;15.20;;
64887;SDS011;51386;53.082;8.816;2023-02-15T10:58:50;17.83;;;15.63;;
64887;SDS011;51386;53.082;8.816;2023-02-15T11:01:46;19.97;;;17.90;;
64887;SDS011;51386;53.082;8.816;2023-02-15T11:07:23;16.67;;;15.07;;
64887;SDS011;51386;53.082;8.816;2023-02-15T11:09:56;17.50;;;15.80;;
64887;SDS011;51386;53.082;8.816;2023-02-15T11:12:33;25.83;;;22.87;;
64887;SDS011;51386;53.082;8.816;2023-02-15T11:15:09;16.83;;;15.07;;
64887;SDS011;51386;53.082;8.816;2023-02-15T11:17:45;18.83;;;16.93;;
64887;SDS011;51386;53.082;8.816;2023-02-15T11:20:23;17.93;;;16.07;;
64887;SDS011;51386;53.082;8.816;2023-02-15T11:22:57;17.97;;;16.27;;
64887;SDS011;51386;53.082;8.816;2023-02-15T11:25:28;31.33;;;26.60;;
64887;SDS011;51386;53.082;8.816;2023-02-15T11:27:58;18.70;;;16.77;;
64887;SDS011;51386;53.082;8.816;2023-02-15T11:30:33;19.17;;;17.17;;
64887;SDS011;51386;53.082;8.816;2023-02-15T11:33:15;17.07;;;15.40;;
64887;SDS011;51386;53.082;8.816;2023-02-15T11:35:49;20.47;;;18.13;;
64887;SDS011;51386;53.082;8.816;2023-02-15T11:38:26;28.30;;;15.40;;
64887;SDS011;51386;53.082;8.816;2023-02-15T11:40:59;17.70;;;16.00;;
64887;SDS011;51386;53.082;8.816;2023-02-15T11:43:32;19.67;;;16.70;;
64887;SDS011;51386;53.082;8.816;2023-02-15T11:46:07;18.20;;;16.50;;
64887;SDS011;51386;53.082;8.816;2023-02-15T11:48:39;19.33;;;17.43;;
64887;SDS011;51386;53.082;8.816;2023-02-15T11:51:08;21.77;;;19.57;;
64887;SDS011;51386;53.082;8.816;2023-02-15T11:53:42;19.57;;;17.67;;
64887;SDS011;51386;53.082;8.816;2023-02-15T11:56:13;18.67;;;16.77;;
64887;SDS011;51386;53.082;8.816;2023-02-15T11:58:43;16.43;;;14.77;;
64887;SDS011;51386;53.082;8.816;2023-02-15T12:01:18;16.07;;;14.50;;
64887;SDS011;51386;53.082;8.816;2023-02-15T12:03:56;16.93;;;15.30;;
64887;SDS011;51386;53.082;8.816;2023-02-15T12:06:32;20.63;;;18.60;;
64887;SDS011;51386;53.082;8.816;2023-02-15T12:09:05;20.10;;;18.03;;
64887;SDS011;51386;53.082;8.816;2023-02-15T12:12:07;17.77;;;15.97;;
64887;SDS011;51386;53.082;8.816;2023-02-15T12:14:49;18.33;;;16.43;;
64887;SDS011;51386;53.082;8.816;2023-02-15T12:17:21;16.87;;;15.17;;
64887;SDS011;51386;53.082;8.816;2023-02-15T12:19:54;17.30;;;15.60;;
64887;SDS011;51386;53.082;8.816;2023-02-15T12:22:27;17.17;;;15.10;;
64887;SDS011;51386;53.082;8.816;2023-02-15T12:24:57;17.93;;;16.03;;
64887;SDS011;51386;53.082;8.816;2023-02-15T12:27:30;17.63;;;15.60;;
64887;SDS011;51386;53.082;8.816;2023-02-15T12:30:01;19.70;;;17.73;;
64887;SDS011;51386;53.082;8.816;2023-02-15T12:32:46;19.13;;;17.27;;
64887;SDS011;51386;53.082;8.816;2023-02-15T12:35:21;18.40;;;16.60;;
64887;SDS011;51386;53.082;8.816;2023-02-15T12:37:56;18.77;;;16.80;;
64887;SDS011;51386;53.082;8.816;2023-02-15T12:40:28;19.73;;;17.70;;
64887;SDS011;51386;53.082;8.816;2023-02-15T12:42:58;21.73;;;19.63;;
64887;SDS011;51386;53.082;8.816;2023-02-15T12:45:26;21.07;;;18.87;;
64887;SDS011;51386;53.082;8.816;2023-02-15T12:48:08;19.77;;;17.77;;
64887;SDS011;51386;53.082;8.816;2023-02-15T12:50:46;22.37;;;20.03;;
64887;SDS011;51386;53.082;8.816;2023-02-15T12:53:32;23.30;;;20.83;;
64887;SDS011;51386;53.082;8.816;2023-02-15T12:56:03;22.13;;;19.90;;
64887;SDS011;51386;53.082;8.816;2023-02-15T12:58:32;24.60;;;21.90;;
64887;SDS011;51386;53.082;8.816;2023-02-15T13:01:10;22.80;;;20.40;;
64887;SDS011;51386;53.082;8.816;2023-02-15T13:03:51;22.47;;;20.13;;
64887;SDS011;51386;53.082;8.816;2023-02-15T13:06:32;23.33;;;20.93;;
64887;SDS011;51386;53.082;8.816;2023-02-15T13:09:05;23.17;;;20.77;;
64887;SDS011;51386;53.082;8.816;2023-02-15T13:11:41;24.47;;;21.93;;
64887;SDS011;51386;53.082;8.816;2023-02-15T13:14:15;22.00;;;19.77;;
64887;SDS011;51386;53.082;8.816;2023-02-15T13:16:45;24.83;;;22.13;;
64887;SDS011;51386;53.082;8.816;2023-02-15T13:19:18;24.73;;;22.13;;
64887;SDS011;51386;53.082;8.816;2023-02-15T13:21:54;25.33;;;22.73;;
64887;SDS011;51386;53.082;8.816;2023-02-15T13:24:24;25.33;;;22.73;;
64887;SDS011;51386;53.082;8.816;2023-02-15T13:26:56;28.13;;;25.10;;
64887;SDS011;51386;53.082;8.816;2023-02-15T13:29:41;26.10;;;23.50;;
64887;SDS011;51386;53.082;8.816;2023-02-15T13:32:23;26.40;;;22.83;;
64887;SDS011;51386;53.082;8.816;2023-02-15T13:34:56;25.70;;;23.00;;
64887;SDS011;51386;53.082;8.816;2023-02-15T13:37:41;27.13;;;23.60;;
64887;SDS011;51386;53.082;8.816;2023-02-15T13:40:28;23.63;;;21.17;;
64887;SDS011;51386;53.082;8.816;2023-02-15T13:43:05;27.90;;;22.93;;
64887;SDS011;51386;53.082;8.816;2023-02-15T13:45:52;26.50;;;23.60;;
64887;SDS011;51386;53.082;8.816;2023-02-15T13:48:36;28.60;;;22.30;;
64887;SDS011;51386;53.082;8.816;2023-02-15T13:51:19;26.77;;;23.70;;
64887;SDS011;51386;53.082;8.816;2023-02-15T13:54:03;28.23;;;24.73;;
64887;SDS011;51386;53.082;8.816;2023-02-15T13:57:21;29.57;;;24.43;;
64887;SDS011;51386;53.082;8.816;2023-02-15T14:00:11;30.57;;;23.83;;
64887;SDS011;51386;53.082;8.816;2023-02-15T14:02:54;26.70;;;23.80;;
64887;SDS011;51386;53.082;8.816;2023-02-15T14:05:54;28.40;;;22.47;;
64887;SDS011;51386;53.082;8.816;2023-02-15T14:08:44;28.67;;;24.07;;
64887;SDS011;51386;53.082;8.816;2023-02-15T14:11:35;27.87;;;23.47;;
64887;SDS011;51386;53.082;8.816;2023-02-15T14:14:27;25.10;;;20.70;;
64887;SDS011;51386;53.082;8.816;2023-02-15T14:17:21;31.47;;;22.97;;
64887;SDS011;51386;53.082;8.816;2023-02-15T14:19:57;28.67;;;23.20;;
64887;SDS011;51386;53.082;8.816;2023-02-15T14:22:36;27.83;;;19.97;;
64887;SDS011;51386;53.082;8.816;2023-02-15T14:25:15;27.30;;;22.13;;
64887;SDS011;51386;53.082;8.816;2023-02-15T14:27:56;28.03;;;22.23;;
64887;SDS011;51386;53.082;8.816;2023-02-15T14:30:34;24.73;;;20.93;;
64887;SDS011;51386;53.082;8.816;2023-02-15T14:33:05;26.37;;;20.97;;
64887;SDS011;51386;53.082;8.816;2023-02-15T14:35:51;26.23;;;20.37;;
64887;SDS011;51386;53.082;8.816;2023-02-15T14:38:21;24.17;;;21.63;;
64887;SDS011;51386;53.082;8.816;2023-02-15T14:41:07;31.13;;;21.33;;
64887;SDS011;51386;53.082;8.816;2023-02-15T14:43:44;26.57;;;20.80;;
64887;SDS011;51386;53.082;8.816;2023-02-15T14:46:24;26.57;;;20.70;;
64887;SDS011;51386;53.082;8.816;2023-02-15T14:49:03;28.43;;;22.40;;
64887;SDS011;51386;53.082;8.816;2023-02-15T14:51:56;24.70;;;20.83;;
64887;SDS011;51386;53.082;8.816;2023-02-15T14:57:30;23.10;;;18.67;;
64887;SDS011;51386;53.082;8.816;2023-02-15T15:00:12;23.57;;;18.70;;
64887;SDS011;51386;53.082;8.816;2023-02-15T15:03:09;23.40;;;18.73;;
64887;SDS011;51386;53.082;8.816;2023-02-15T15:05:50;24.53;;;20.03;;
64887;SDS011;51386;53.082;8.816;2023-02-15T15:08:26;24.00;;;20.07;;
64887;SDS011;51386;53.082;8.816;2023-02-15T15:14:10;26.77;;;20.10;;
64887;SDS011;51386;53.082;8.816;2023-02-15T15:17:05;27.47;;;19.97;;
64887;SDS011;51386;53.082;8.816;2023-02-15T15:26:20;24.90;;;18.63;;
64887;SDS011;51386;53.082;8.816;2023-02-15T15:29:03;21.10;;;16.93;;
64887;SDS011;51386;53.082;8.816;2023-02-15T15:31:37;21.63;;;17.77;;